Time;durP1;ratioP1;P1;durP2;ratioP2;P2;SDS_P1;SDS_P2;PMS_P1;PMS_P2;Temp;Humidity;BMP_temperature;BMP_pressure;BME280_temperature;BME280_humidity;BME280_pressure;Samples;Min_cycle;Max_cycle;Signal;HPM_P1;HPM_P2
2023/07/08 00:00:50;;;;;;;8.70;6.22;;;;;;;20.53;53.22;101091.47;5039575;28;20572;-64
2023/07/08 00:03:17;;;;;;;9.88;6.70;;;;;;;20.52;52.84;101076.63;5039952;28;20040;-64
2023/07/08 00:05:43;;;;;;;10.77;7.32;;;;;;;20.56;52.20;101068.56;5035707;28;20041;-64
2023/07/08 00:08:13;;;;;;;10.52;6.00;;;;;;;20.62;51.53;101059.56;5035528;28;20036;-64
2023/07/08 00:10:38;;;;;;;11.63;7.05;;;;;;;20.71;50.88;101048.66;5033738;28;20051;-64
2023/07/08 00:13:04;;;;;;;9.65;6.70;;;;;;;20.80;50.77;101042.13;5037648;28;20561;-64
2023/07/08 00:15:34;;;;;;;8.77;5.82;;;;;;;20.83;50.68;101037.59;5035517;28;20033;-64
2023/07/08 00:18:01;;;;;;;9.70;6.45;;;;;;;20.81;50.63;101043.84;5040990;28;20105;-64
2023/07/08 00:20:39;;;;;;;10.07;5.88;;;;;;;20.76;50.87;101043.19;5037963;28;20033;-63
2023/07/08 00:23:05;;;;;;;10.93;6.10;;;;;;;20.72;50.88;101046.91;5041992;28;20037;-65
2023/07/08 00:25:32;;;;;;;8.38;5.90;;;;;;;20.69;51.20;101046.09;5033962;28;20091;-64
2023/07/08 00:27:57;;;;;;;10.40;6.88;;;;;;;20.67;51.62;101053.16;5036506;28;20044;-64
2023/07/08 00:30:24;;;;;;;9.38;6.25;;;;;;;20.64;51.58;101055.94;5044297;28;20033;-64
2023/07/08 00:32:56;;;;;;;9.60;6.05;;;;;;;20.62;51.58;101057.78;5040252;28;20037;-63
2023/07/08 00:35:25;;;;;;;10.90;6.40;;;;;;;20.60;52.14;101062.25;5041339;28;20035;-63
2023/07/08 00:38:01;;;;;;;10.50;5.80;;;;;;;20.60;52.39;101053.53;5039163;28;20014;-64
2023/07/08 00:40:26;;;;;;;11.88;6.90;;;;;;;20.59;52.40;101057.94;5032803;28;20159;-64
2023/07/08 00:42:53;;;;;;;9.77;6.82;;;;;;;20.61;52.22;101049.97;5031852;28;20634;-63
2023/07/08 00:45:49;;;;;;;10.82;6.97;;;;;;;20.61;51.71;101047.34;5038537;28;20045;-64
2023/07/08 00:48:23;;;;;;;9.07;6.13;;;;;;;20.60;51.29;101035.97;5030662;28;20045;-63
2023/07/08 00:50:50;;;;;;;9.25;6.38;;;;;;;20.59;51.20;101042.16;5042747;28;20100;-64
2023/07/08 00:53:28;;;;;;;10.13;6.43;;;;;;;20.59;53.53;101071.06;5037500;28;20028;-64
2023/07/08 00:55:59;;;;;;;12.00;6.78;;;;;;;20.53;53.49;101079.22;5033301;28;20037;-64
2023/07/08 00:58:31;;;;;;;9.65;6.55;;;;;;;20.49;54.56;101092.53;5044514;28;20037;-64
2023/07/08 01:00:58;;;;;;;11.90;6.68;;;;;;;20.41;55.47;101094.66;5040601;28;20120;-64
2023/07/08 01:03:24;;;;;;;9.90;6.40;;;;;;;20.36;56.22;101107.13;5040040;28;20572;-64
2023/07/08 01:05:51;;;;;;;10.50;7.38;;;;;;;20.29;57.07;101105.69;5036074;28;20040;-63
2023/07/08 01:08:16;;;;;;;11.40;6.78;;;;;;;20.26;57.23;101103.19;5035488;28;20091;-62
2023/07/08 01:10:49;;;;;;;11.43;6.78;;;;;;;20.23;57.17;101098.06;5033721;28;20127;-63
2023/07/08 01:13:16;;;;;;;10.93;7.75;;;;;;;20.18;57.46;101095.66;5035203;28;20059;-63
2023/07/08 01:15:45;;;;;;;11.95;6.95;;;;;;;20.15;57.96;101101.88;5042937;28;20043;-63
2023/07/08 01:18:16;;;;;;;9.05;6.38;;;;;;;20.11;57.94;101088.94;5035719;28;20716;-64
2023/07/08 01:20:42;;;;;;;14.00;6.95;;;;;;;20.07;57.76;101095.22;5036193;28;20041;-63
2023/07/08 01:23:09;;;;;;;10.07;6.40;;;;;;;20.04;58.20;101093.59;5034797;28;20087;-63
2023/07/08 01:25:34;;;;;;;10.23;6.82;;;;;;;20.02;58.36;101087.56;5032831;28;20132;-64
2023/07/08 01:28:00;;;;;;;10.88;6.75;;;;;;;20.00;58.04;101080.69;5035819;28;20059;-63
2023/07/08 01:30:27;;;;;;;13.30;6.95;;;;;;;19.99;57.71;101071.94;5040943;28;20045;-64
2023/07/08 01:32:58;;;;;;;11.00;6.78;;;;;;;19.97;57.32;101062.44;5036725;28;20068;-63
2023/07/08 01:35:24;;;;;;;9.95;7.25;;;;;;;19.95;56.77;101052.00;5040034;28;20556;-63
2023/07/08 01:37:56;;;;;;;10.38;6.22;;;;;;;19.93;56.38;101053.84;5043163;28;20131;-64
2023/07/08 01:40:24;;;;;;;10.38;6.85;;;;;;;19.92;55.93;101046.00;5035415;28;20061;-64
2023/07/08 01:42:49;;;;;;;10.63;5.88;;;;;;;19.91;55.78;101049.56;5031593;28;20067;-63
2023/07/08 01:45:18;;;;;;;9.57;6.65;;;;;;;19.88;55.33;101039.22;5031685;28;20411;-63
2023/07/08 01:48:01;;;;;;;9.57;6.20;;;;;;;19.84;55.34;101043.72;5028986;28;20106;-63
2023/07/08 01:50:28;;;;;;;8.07;6.30;;;;;;;19.78;55.74;101051.81;5033435;28;20033;-63
2023/07/08 01:52:57;;;;;;;8.23;5.88;;;;;;;19.73;55.64;101048.53;5040007;28;20025;-63
2023/07/08 01:55:24;;;;;;;9.38;6.22;;;;;;;19.70;55.50;101047.81;5036204;28;20048;-63
2023/07/08 01:57:53;;;;;;;10.68;6.43;;;;;;;19.65;55.54;101052.41;5032313;28;20095;-64
2023/07/08 02:00:19;;;;;;;9.88;6.72;;;;;;;19.60;56.13;101055.19;5036708;28;20406;-64
2023/07/08 02:02:44;;;;;;;9.38;6.63;;;;;;;19.55;56.51;101054.53;5042591;28;20049;-63
2023/07/08 02:05:10;;;;;;;11.02;6.60;;;;;;;19.49;56.98;101052.16;5036957;28;20037;-64
2023/07/08 02:07:35;;;;;;;10.55;6.63;;;;;;;19.43;57.39;101050.66;5044686;28;20041;-63
2023/07/08 02:10:01;;;;;;;11.95;7.32;;;;;;;19.38;57.75;101052.59;5038468;28;20758;-63
2023/07/08 02:12:26;;;;;;;10.45;6.80;;;;;;;19.31;58.36;101056.38;5041888;28;20554;-64
2023/07/08 02:14:51;;;;;;;11.00;7.45;;;;;;;19.22;58.31;101059.34;5038530;28;20048;-63
2023/07/08 02:17:17;;;;;;;11.77;6.70;;;;;;;19.19;57.62;101045.50;5040564;28;20588;-62
2023/07/08 02:19:43;;;;;;;11.10;6.35;;;;;;;19.13;57.40;101038.75;5036902;28;20039;-64
2023/07/08 02:22:09;;;;;;;11.82;6.63;;;;;;;19.08;57.63;101040.69;5034264;28;20033;-63
2023/07/08 02:24:34;;;;;;;9.68;6.57;;;;;;;19.04;57.32;101033.88;5035877;28;20033;-64
2023/07/08 02:27:00;;;;;;;8.77;6.47;;;;;;;19.01;57.80;101045.31;5035809;28;20782;-63
2023/07/08 02:29:26;;;;;;;9.73;6.30;;;;;;;18.96;57.95;101042.03;5038693;28;20529;-63
2023/07/08 02:31:51;;;;;;;12.57;6.63;;;;;;;18.94;57.80;101045.59;5037398;28;20619;-63
2023/07/08 02:34:17;;;;;;;8.25;6.00;;;;;;;18.89;57.95;101044.94;5040103;28;20040;-64
2023/07/08 02:36:43;;;;;;;9.70;6.50;;;;;;;18.84;58.64;101049.47;5035712;28;20186;-63
2023/07/08 02:39:09;;;;;;;9.10;6.03;;;;;;;18.81;58.80;101054.81;5034293;28;20037;-63
2023/07/08 02:41:35;;;;;;;8.85;6.53;;;;;;;18.76;58.96;101052.34;5036939;28;20736;-64
2023/07/08 02:44:00;;;;;;;8.40;6.10;;;;;;;18.72;59.09;101053.41;5039999;28;20040;-64
2023/07/08 02:46:25;;;;;;;10.27;6.78;;;;;;;18.68;59.20;101051.78;5040369;28;20045;-64
2023/07/08 02:48:51;;;;;;;11.63;6.70;;;;;;;18.68;58.97;101045.69;5040756;28;20048;-64
2023/07/08 02:51:16;;;;;;;9.75;6.40;;;;;;;18.67;58.98;101044.00;5038857;28;20106;-64
2023/07/08 02:53:41;;;;;;;10.73;6.43;;;;;;;18.65;58.89;101051.91;5042081;28;20045;-63
2023/07/08 02:56:07;;;;;;;9.70;6.68;;;;;;;18.63;58.91;101045.88;5041264;28;20314;-64
2023/07/08 02:58:34;;;;;;;9.48;6.25;;;;;;;18.63;58.92;101052.88;5033377;28;20116;-63
2023/07/08 03:01:00;;;;;;;8.52;6.18;;;;;;;18.61;59.13;101050.31;5040018;28;20041;-64
2023/07/08 03:03:28;;;;;;;8.35;5.75;;;;;;;18.60;59.10;101053.84;5045506;28;20047;-63
2023/07/08 03:05:59;;;;;;;11.25;6.78;;;;;;;18.60;59.08;101053.84;5037607;28;20029;-64
2023/07/08 03:08:26;;;;;;;8.18;6.00;;;;;;;18.58;59.04;101053.06;5034964;28;20030;-63
2023/07/08 03:10:56;;;;;;;8.98;5.93;;;;;;;18.61;59.10;101052.09;5042856;28;20262;-64
2023/07/08 03:13:22;;;;;;;7.65;5.78;;;;;;;18.59;59.05;101059.97;5041531;28;20173;-63
2023/07/08 03:15:47;;;;;;;9.85;6.25;;;;;;;18.59;58.89;101057.38;5034258;28;20678;-63
2023/07/08 03:18:13;;;;;;;10.27;6.45;;;;;;;18.62;58.77;101052.00;5039561;28;20573;-63
2023/07/08 03:20:44;;;;;;;9.93;6.00;;;;;;;18.67;58.59;101046.63;5040759;28;20470;-64
2023/07/08 03:23:10;;;;;;;7.63;5.45;;;;;;;18.68;58.38;101045.69;5035784;28;20082;-63
2023/07/08 03:25:36;;;;;;;9.93;5.97;;;;;;;18.70;58.45;101049.97;5042538;28;20038;-63
2023/07/08 03:28:01;;;;;;;8.82;5.47;;;;;;;18.72;58.26;101047.31;5034369;28;20055;-63
2023/07/08 03:30:27;;;;;;;9.80;5.90;;;;;;;18.75;58.12;101049.81;5039822;28;20152;-63
2023/07/08 03:32:54;;;;;;;10.60;6.30;;;;;;;18.76;58.05;101033.19;5038141;28;20095;-63
2023/07/08 03:35:21;;;;;;;7.03;5.22;;;;;;;18.78;58.20;101040.06;5039515;28;20045;-63
2023/07/08 03:37:47;;;;;;;9.10;5.30;;;;;;;18.77;58.10;101042.72;5040178;28;20387;-63
2023/07/08 03:40:13;;;;;;;10.52;5.40;;;;;;;18.79;58.14;101043.56;5040123;28;20141;-64
2023/07/08 03:42:39;;;;;;;8.25;5.05;;;;;;;18.80;58.17;101053.97;5040953;28;20379;-63
2023/07/08 03:45:04;;;;;;;8.13;5.07;;;;;;;18.81;58.46;101058.28;5034280;28;20039;-63
2023/07/08 03:47:30;;;;;;;8.75;5.60;;;;;;;18.84;58.46;101059.94;5035873;28;20060;-63
2023/07/08 03:49:55;;;;;;;7.65;5.05;;;;;;;18.86;58.35;101066.84;5035671;28;20036;-63
2023/07/08 03:52:21;;;;;;;6.85;4.80;;;;;;;18.92;58.19;101063.16;5036801;28;20828;-60
2023/07/08 03:54:46;;;;;;;8.93;5.85;;;;;;;18.97;58.17;101054.19;5037042;28;20155;-60
2023/07/08 03:57:15;;;;;;;7.68;5.18;;;;;;;19.02;58.19;101062.75;5033075;28;20734;-59
2023/07/08 03:59:40;;;;;;;7.95;5.50;;;;;;;19.04;58.25;101070.53;5034464;28;20041;-59
2023/07/08 04:02:11;;;;;;;13.60;6.25;;;;;;;19.08;58.83;101072.16;5039765;28;20102;-60
2023/07/08 04:04:37;;;;;;;8.50;5.38;;;;;;;19.11;58.83;101079.88;5039865;28;20041;-60
2023/07/08 04:07:05;;;;;;;8.90;5.43;;;;;;;19.15;58.87;101070.97;5041507;28;20495;-59
2023/07/08 04:09:31;;;;;;;9.57;6.13;;;;;;;19.19;59.17;101079.59;5037059;28;20041;-60
2023/07/08 04:11:57;;;;;;;9.32;6.03;;;;;;;19.19;59.58;101087.44;5036831;28;20051;-59
2023/07/08 04:14:23;;;;;;;9.63;6.25;;;;;;;19.18;59.79;101088.34;5033454;28;20072;-60
2023/07/08 04:16:52;;;;;;;10.75;6.25;;;;;;;19.17;60.00;101089.28;5038163;28;20116;-59
2023/07/08 04:19:18;;;;;;;8.75;5.60;;;;;;;19.16;59.74;101082.31;5038757;28;20045;-60
2023/07/08 04:21:45;;;;;;;11.70;6.53;;;;;;;19.15;59.79;101081.47;5036348;28;20579;-60
2023/07/08 04:24:12;;;;;;;8.77;6.30;;;;;;;19.13;59.51;101071.94;5039234;28;20036;-60
2023/07/08 04:26:39;;;;;;;10.32;5.70;;;;;;;19.18;59.33;101075.25;5034837;28;20160;-60
2023/07/08 04:29:11;;;;;;;6.93;5.18;;;;;;;19.21;59.12;101067.25;5037322;28;20965;-60
2023/07/08 04:31:37;;;;;;;8.63;5.13;;;;;;;19.20;59.28;101071.69;5033473;28;20028;-60
2023/07/08 04:34:02;;;;;;;9.75;6.07;;;;;;;19.22;59.53;101071.59;5038468;28;20037;-64
2023/07/08 04:36:27;;;;;;;8.95;6.03;;;;;;;19.24;58.90;101054.91;5035458;28;20510;-64
2023/07/08 04:38:53;;;;;;;10.70;6.47;;;;;;;19.31;58.82;101056.38;5033070;28;20500;-64
2023/07/08 04:41:18;;;;;;;8.20;5.55;;;;;;;19.34;59.19;101063.25;5035850;28;20044;-63
2023/07/08 04:43:44;;;;;;;8.70;6.20;;;;;;;19.37;59.42;101068.38;5036399;28;20040;-64
2023/07/08 04:46:34;;;;;;;8.93;5.65;;;;;;;19.40;59.75;101078.75;5039594;28;20068;-61
2023/07/08 04:49:02;;;;;;;12.00;6.57;;;;;;;19.43;59.62;101074.25;5038077;28;20769;-60
2023/07/08 04:51:28;;;;;;;9.13;5.75;;;;;;;19.47;59.58;101080.22;5034453;28;20136;-60
2023/07/08 04:53:53;;;;;;;11.80;5.75;;;;;;;19.56;59.17;101070.19;5032369;28;20029;-63
2023/07/08 04:56:19;;;;;;;8.45;5.65;;;;;;;19.63;58.90;101066.41;5029310;28;20506;-63
2023/07/08 04:58:44;;;;;;;10.38;6.43;;;;;;;19.76;58.50;101052.81;5031912;28;20041;-63
2023/07/08 05:01:09;;;;;;;7.43;5.65;;;;;;;19.86;58.25;101055.00;5033867;28;20063;-63
2023/07/08 05:03:35;;;;;;;9.73;6.53;;;;;;;19.97;58.23;101062.44;5034636;28;20044;-64
2023/07/08 05:06:00;;;;;;;9.65;5.80;;;;;;;20.05;58.09;101057.72;5033783;28;20075;-63
2023/07/08 05:08:25;;;;;;;10.80;6.28;;;;;;;20.15;57.63;101044.13;5036918;28;20033;-63
2023/07/08 05:10:51;;;;;;;9.73;6.05;;;;;;;20.27;57.16;101041.91;5037266;28;20036;-63
2023/07/08 05:13:16;;;;;;;9.45;5.70;;;;;;;20.37;57.29;101041.41;5028058;28;20656;-62
2023/07/08 05:15:41;;;;;;;8.35;5.03;;;;;;;20.50;56.69;101031.22;5037350;28;20051;-62
2023/07/08 05:18:07;;;;;;;7.72;5.30;;;;;;;20.63;56.38;101030.59;5032181;28;20046;-62
2023/07/08 05:20:34;;;;;;;8.48;5.43;;;;;;;20.78;54.42;101010.66;5032839;28;20142;-62
2023/07/08 05:23:00;;;;;;;8.57;5.43;;;;;;;20.99;54.11;101004.41;5029255;28;20048;-62
2023/07/08 05:25:25;;;;;;;10.18;5.47;;;;;;;21.14;52.67;100985.28;5035541;28;20040;-62
2023/07/08 05:27:50;;;;;;;8.00;5.45;;;;;;;21.29;51.80;100975.78;5035456;28;20043;-62
2023/07/08 05:30:18;;;;;;;7.78;4.95;;;;;;;21.41;50.81;100980.44;5029509;28;20087;-62
2023/07/08 05:32:44;;;;;;;9.52;4.95;;;;;;;21.47;50.52;100964.38;5032287;28;20045;-62
2023/07/08 05:35:09;;;;;;;12.38;5.07;;;;;;;21.55;50.10;100958.72;5035356;28;20024;-62
2023/07/08 05:37:35;;;;;;;7.95;5.55;;;;;;;21.62;49.94;100971.53;5036690;28;20040;-62
2023/07/08 05:40:04;;;;;;;7.95;5.38;;;;;;;21.66;50.72;101003.78;5035529;28;20065;-63
2023/07/08 05:42:29;;;;;;;9.15;5.20;;;;;;;21.70;50.92;100994.81;5030586;28;20117;-62
2023/07/08 05:44:54;;;;;;;9.82;5.75;;;;;;;21.77;50.64;100988.31;5031688;28;20090;-62
2023/07/08 05:47:21;;;;;;;9.73;5.15;;;;;;;21.82;51.16;100998.63;5037578;28;20044;-62
2023/07/08 05:49:47;;;;;;;7.60;4.63;;;;;;;21.81;51.03;101000.38;5037075;28;20055;-62
2023/07/08 05:52:12;;;;;;;14.32;5.78;;;;;;;21.80;50.72;100985.50;5032857;28;20040;-62
2023/07/08 05:54:39;;;;;;;12.07;6.22;;;;;;;21.78;50.35;100966.34;5040810;28;20041;-62
2023/07/08 05:57:06;;;;;;;8.82;5.70;;;;;;;21.72;49.93;100958.75;5034026;28;20033;-62
2023/07/08 05:59:32;;;;;;;10.05;5.40;;;;;;;21.68;50.66;100971.22;5029915;28;20056;-62
2023/07/08 06:01:57;;;;;;;8.93;5.28;;;;;;;21.67;50.40;100966.88;5032705;28;20079;-62
2023/07/08 06:04:22;;;;;;;6.32;5.07;;;;;;;21.77;50.73;100972.50;5030108;28;20132;-63
2023/07/08 06:06:48;;;;;;;7.85;5.30;;;;;;;21.83;50.80;100988.00;5038217;28;20052;-61
2023/07/08 06:09:13;;;;;;;7.97;4.75;;;;;;;21.91;52.38;101011.31;5039928;28;20037;-61
2023/07/08 06:11:38;;;;;;;7.05;4.30;;;;;;;21.96;51.86;101007.50;5033264;28;20037;-61
2023/07/08 06:14:04;;;;;;;9.25;5.15;;;;;;;22.07;50.79;100993.78;5033332;28;20169;-61
2023/07/08 06:16:30;;;;;;;10.70;6.05;;;;;;;22.25;49.93;100983.13;5036254;28;20128;-60
2023/07/08 06:18:56;;;;;;;8.52;5.47;;;;;;;22.41;50.25;100977.09;5035179;28;20041;-60
2023/07/08 06:21:22;;;;;;;13.55;6.53;;;;;;;22.61;48.89;100955.78;5026516;28;20120;-60
2023/07/08 06:23:47;;;;;;;11.02;6.00;;;;;;;22.74;48.53;100954.16;5035589;28;20494;-60
2023/07/08 06:26:12;;;;;;;12.10;5.50;;;;;;;22.88;48.34;100954.25;5040741;28;20071;-60
2023/07/08 06:28:38;;;;;;;10.50;5.88;;;;;;;22.96;48.59;100967.84;5028132;28;20041;-60
2023/07/08 06:31:03;;;;;;;9.45;5.65;;;;;;;23.04;47.85;100962.13;5028651;28;20819;-60
2023/07/08 06:33:29;;;;;;;10.85;5.97;;;;;;;23.18;47.46;100960.47;5032269;28;20792;-60
2023/07/08 06:35:54;;;;;;;8.98;4.97;;;;;;;23.32;46.40;100946.47;5031924;28;20147;-60
2023/07/08 06:38:19;;;;;;;11.80;5.47;;;;;;;23.52;47.05;100951.41;5028308;28;20057;-60
2023/07/08 06:40:44;;;;;;;8.55;5.20;;;;;;;23.60;46.15;100940.44;5030937;28;20071;-60
2023/07/08 06:43:10;;;;;;;10.38;5.68;;;;;;;23.68;45.17;100939.03;5029470;28;20055;-60
2023/07/08 06:45:35;;;;;;;7.40;4.78;;;;;;;23.71;45.24;100944.13;5025728;28;20060;-61
2023/07/08 06:48:01;;;;;;;8.35;5.00;;;;;;;23.78;45.95;100963.06;5032017;28;20045;-62
2023/07/08 06:50:26;;;;;;;9.10;5.53;;;;;;;23.79;45.39;100951.56;5033694;28;20489;-64
2023/07/08 06:52:51;;;;;;;8.45;5.30;;;;;;;23.95;45.31;100952.38;5041068;28;20037;-64
2023/07/08 06:55:17;;;;;;;9.25;5.25;;;;;;;24.05;45.46;100971.13;5041645;28;20044;-63
2023/07/08 06:57:42;;;;;;;9.40;5.15;;;;;;;24.18;44.95;100959.75;5038830;28;20049;-62
2023/07/08 07:00:10;;;;;;;10.55;5.75;;;;;;;24.36;45.15;100963.91;5037783;28;20075;-62
2023/07/08 07:02:35;;;;;;;8.25;5.18;;;;;;;24.66;44.45;100961.13;5042049;28;20048;-62
2023/07/08 07:05:02;;;;;;;8.55;5.15;;;;;;;24.93;43.89;100953.25;5039532;28;20059;-64
2023/07/08 07:07:27;;;;;;;8.43;5.15;;;;;;;25.05;44.03;100963.88;5032267;28;20715;-63
2023/07/08 07:09:53;;;;;;;10.30;5.68;;;;;;;25.06;44.18;100962.06;5036577;28;20048;-63
2023/07/08 07:12:19;;;;;;;8.90;5.10;;;;;;;25.16;43.90;100968.47;5040874;28;20044;-63
2023/07/08 07:14:44;;;;;;;9.18;6.00;;;;;;;25.16;44.45;100964.97;5033923;28;20075;-63
2023/07/08 07:17:10;;;;;;;9.43;5.80;;;;;;;25.11;42.83;100952.06;5036141;28;20025;-63
2023/07/08 07:19:35;;;;;;;11.15;6.45;;;;;;;25.36;43.09;100959.19;5037367;28;20155;-63
2023/07/08 07:22:01;;;;;;;9.15;5.97;;;;;;;25.41;43.78;100970.38;5036817;28;20040;-63
2023/07/08 07:24:26;;;;;;;8.60;5.15;;;;;;;25.42;42.06;100953.53;5042601;28;20045;-64
2023/07/08 07:26:52;;;;;;;9.23;5.93;;;;;;;25.28;43.23;100959.72;5035859;28;20041;-63
2023/07/08 07:29:17;;;;;;;9.90;5.70;;;;;;;25.37;42.68;100952.97;5037977;28;20037;-63
2023/07/08 07:31:43;;;;;;;7.18;5.00;;;;;;;25.39;43.21;100959.00;5036453;28;20124;-63
2023/07/08 07:34:09;;;;;;;8.52;6.00;;;;;;;25.42;43.06;100958.81;5035487;28;20083;-63
2023/07/08 07:36:35;;;;;;;8.48;5.55;;;;;;;25.52;42.48;100955.47;5039237;28;20202;-63
2023/07/08 07:39:00;;;;;;;8.52;5.75;;;;;;;25.56;42.61;100956.13;5038978;28;20428;-63
2023/07/08 07:41:25;;;;;;;9.32;5.78;;;;;;;25.59;42.78;100969.13;5044092;28;20035;-63
2023/07/08 07:43:51;;;;;;;10.18;5.60;;;;;;;;;;5043968;28;20469;-63
2023/07/08 07:46:16;;;;;;;9.23;5.63;;;;;;;25.77;40.66;100945.88;5046383;28;21988;-63
2023/07/08 07:48:42;;;;;;;9.48;6.00;;;;;;;25.87;41.14;100949.56;5048842;28;20040;-63
2023/07/08 07:51:10;;;;;;;7.60;5.95;;;;;;;26.05;40.72;100953.59;5051702;28;20045;-64
2023/07/08 07:53:39;;;;;;;10.13;5.75;;;;;;;26.22;41.41;100968.34;5041996;28;20037;-62
2023/07/08 07:56:04;;;;;;;10.27;5.93;;;;;;;26.34;40.53;100954.22;5039863;28;20036;-63
2023/07/08 07:58:31;;;;;;;8.88;6.32;;;;;;;26.46;40.99;100958.66;5038949;28;20030;-63
2023/07/08 08:00:57;;;;;;;8.70;5.40;;;;;;;26.46;41.31;100959.53;5035753;28;20045;-63
2023/07/08 08:03:23;;;;;;;11.63;5.80;;;;;;;26.60;40.90;100953.25;5033858;28;20045;-63
2023/07/08 08:05:48;;;;;;;9.48;6.07;;;;;;;26.73;38.94;100932.81;5040070;28;20672;-63
2023/07/08 08:08:14;;;;;;;8.23;4.90;;;;;;;26.79;39.11;100934.22;5040121;28;20025;-63
2023/07/08 08:10:39;;;;;;;7.50;5.22;;;;;;;26.90;38.89;100940.44;5040263;28;20040;-63
2023/07/08 08:13:05;;;;;;;7.18;5.25;;;;;;;27.01;38.92;100937.00;5033390;28;20148;-63
2023/07/08 08:15:30;;;;;;;10.35;5.00;;;;;;;27.07;39.63;100945.38;5040604;28;20041;-63
2023/07/08 08:17:56;;;;;;;11.45;4.95;;;;;;;27.22;38.14;100924.78;5047084;28;20037;-62
2023/07/08 08:20:23;;;;;;;7.60;5.40;;;;;;;27.34;38.15;100926.53;5039160;28;20028;-63
2023/07/08 08:22:49;;;;;;;7.70;5.43;;;;;;;27.42;37.36;100916.16;5042659;28;20358;-63
2023/07/08 08:25:16;;;;;;;10.38;5.38;;;;;;;27.56;37.59;100931.06;5046693;28;20048;-63
2023/07/08 08:27:41;;;;;;;8.50;5.20;;;;;;;27.69;37.21;100926.53;5044256;28;20029;-63
2023/07/08 08:30:07;;;;;;;9.05;4.72;;;;;;;27.84;36.81;100928.00;5040585;28;20517;-63
2023/07/08 08:32:33;;;;;;;8.25;4.95;;;;;;;27.85;37.10;100934.97;5040404;28;20044;-63
2023/07/08 08:34:58;;;;;;;8.07;5.50;;;;;;;27.94;37.13;100938.72;5039134;28;20033;-63
2023/07/08 08:37:24;;;;;;;11.77;5.60;;;;;;;28.07;35.98;100916.41;5036861;28;20087;-63
2023/07/08 08:39:49;;;;;;;8.40;4.95;;;;;;;28.20;36.38;100927.78;5029671;28;20045;-63
2023/07/08 08:42:39;;;;;;;5.85;4.45;;;;;;;28.30;35.05;100919.94;5039844;28;20106;-63
2023/07/08 08:45:10;;;;;;;8.80;5.00;;;;;;;28.43;34.75;100922.47;5044328;28;20086;-63
2023/07/08 08:47:46;;;;;;;7.78;4.75;;;;;;;28.57;35.03;100927.50;5041111;28;20126;-63
2023/07/08 08:50:28;;;;;;;6.25;3.90;;;;;;;28.68;34.93;100931.00;5046451;28;20458;-63
2023/07/08 08:52:55;;;;;;;6.32;4.80;;;;;;;28.98;33.76;100909.03;5037525;28;20059;-63
2023/07/08 08:55:25;;;;;;;5.95;4.30;;;;;;;29.08;35.28;100931.28;5040849;28;20045;-63
2023/07/08 08:58:02;;;;;;;5.38;4.35;;;;;;;29.23;34.50;100921.16;5032313;28;20711;-63
2023/07/08 09:00:55;;;;;;;7.78;4.35;;;;;;;29.28;34.21;100925.13;5034506;28;20147;-63
2023/07/08 09:03:49;;;;;;;7.40;4.90;;;;;;;29.37;33.81;100928.88;5039348;28;20411;-63
2023/07/08 09:06:20;;;;;;;8.38;4.60;;;;;;;29.45;33.89;100926.44;5032619;28;20040;-63
2023/07/08 09:08:46;;;;;;;9.82;3.88;;;;;;;29.60;33.35;100922.44;5048027;28;20044;-63
2023/07/08 09:11:24;;;;;;;7.38;4.45;;;;;;;29.68;33.75;100922.66;5039013;28;20029;-63
2023/07/08 09:13:51;;;;;;;6.50;4.28;;;;;;;29.78;33.57;100915.53;5035932;28;20143;-63
2023/07/08 09:16:26;;;;;;;7.97;4.25;;;;;;;29.95;32.58;100919.47;5038906;28;20131;-63
2023/07/08 09:19:09;;;;;;;6.80;4.60;;;;;;;30.07;32.63;100910.41;5030419;28;20685;-63
2023/07/08 09:21:48;;;;;;;6.75;4.85;;;;;;;30.17;32.61;100913.09;5036469;28;20087;-63
2023/07/08 09:24:27;;;;;;;6.45;4.28;;;;;;;30.27;32.32;100912.16;5038358;28;20044;-63
2023/07/08 09:26:56;;;;;;;6.60;4.50;;;;;;;30.31;32.80;100912.75;5042622;28;20668;-64
2023/07/08 09:29:22;;;;;;;8.18;4.25;;;;;;;30.46;33.24;100920.22;5038956;28;20025;-63
2023/07/08 09:31:48;;;;;;;7.38;4.60;;;;;;;30.54;33.17;100910.72;5037633;28;20025;-63
2023/07/08 09:34:19;;;;;;;11.20;5.18;;;;;;;30.55;32.82;100910.56;5036388;28;20036;-63
2023/07/08 09:36:48;;;;;;;9.82;4.40;;;;;;;30.68;33.10;100913.00;5034001;28;20060;-64
2023/07/08 09:39:16;;;;;;;8.00;4.95;;;;;;;30.78;33.33;100917.38;5034915;28;20041;-65
2023/07/08 09:41:44;;;;;;;7.53;4.15;;;;;;;30.81;32.54;100908.25;5038758;28;20068;-63
2023/07/08 09:44:26;;;;;;;10.80;4.30;;;;;;;30.90;31.88;100908.25;5034274;28;20734;-63
2023/07/08 09:46:53;;;;;;;6.30;4.15;;;;;;;30.96;32.86;100907.72;5044040;28;20128;-64
2023/07/08 09:49:21;;;;;;;7.03;4.20;;;;;;;31.03;31.81;100897.28;5043070;28;20679;-63
2023/07/08 09:51:48;;;;;;;12.52;5.15;;;;;;;31.08;31.49;100893.19;5052541;28;20043;-63
2023/07/08 09:54:14;;;;;;;9.50;4.43;;;;;;;31.16;31.18;100879.19;5041478;28;20040;-63
2023/07/08 09:56:43;;;;;;;6.95;3.92;;;;;;;31.16;31.06;100881.00;5037218;28;20092;-63
2023/07/08 09:59:12;;;;;;;9.90;4.97;;;;;;;31.22;31.26;100881.28;5036997;28;20548;-63
2023/07/08 10:01:39;;;;;;;8.20;4.60;;;;;;;31.32;31.21;100894.66;5038977;28;20033;-64
2023/07/08 10:04:06;;;;;;;7.90;5.07;;;;;;;31.42;30.84;100884.78;5032561;28;20037;-63
2023/07/08 10:06:34;;;;;;;8.60;4.65;;;;;;;31.52;31.68;100893.63;5040883;28;20482;-63
2023/07/08 10:09:09;;;;;;;7.47;4.82;;;;;;;31.56;31.97;100898.53;5039548;28;20044;-64
2023/07/08 10:11:44;;;;;;;7.90;4.53;;;;;;;31.59;31.30;100886.69;5041586;28;20020;-63
2023/07/08 10:14:41;;;;;;;11.20;4.85;;;;;;;31.70;30.76;100883.91;5036659;28;20021;-63
2023/07/08 10:17:14;;;;;;;8.52;4.53;;;;;;;31.83;30.47;100879.06;5007853;28;20041;-63
2023/07/08 10:19:40;;;;;;;8.30;4.85;;;;;;;31.92;31.35;100883.53;5037620;28;20041;-63
2023/07/08 10:22:23;;;;;;;8.82;5.15;;;;;;;31.85;30.25;100881.59;5039540;28;20041;-63
2023/07/08 10:25:01;;;;;;;7.13;5.07;;;;;;;31.94;30.65;100886.06;5036071;28;20060;-63
2023/07/08 10:27:44;;;;;;;11.15;5.32;;;;;;;31.98;30.78;100888.28;5039028;28;20045;-63
2023/07/08 10:30:20;;;;;;;9.18;5.53;;;;;;;32.11;30.92;100891.50;5036060;28;20057;-63
2023/07/08 10:33:00;;;;;;;8.93;5.03;;;;;;;32.23;30.41;100875.22;5037373;28;20114;-63
2023/07/08 10:35:41;;;;;;;6.97;4.40;;;;;;;32.34;30.19;100883.94;5033039;28;20029;-63
2023/07/08 10:38:42;;;;;;;8.13;4.93;;;;;;;32.13;29.58;100873.44;5044514;28;20029;-63
2023/07/08 10:41:22;;;;;;;8.32;5.28;;;;;;;32.36;30.55;100875.78;5021042;28;20056;-63
2023/07/08 10:43:53;;;;;;;8.20;5.05;;;;;;;32.47;29.73;100870.19;5032747;28;20076;-63
2023/07/08 10:46:31;;;;;;;8.55;4.90;;;;;;;32.65;30.13;100881.78;5036544;28;20582;-63
2023/07/08 10:49:12;;;;;;;8.25;5.20;;;;;;;32.79;30.68;100894.66;5035569;28;20049;-63
2023/07/08 10:51:51;;;;;;;9.70;5.13;;;;;;;32.74;29.07;100880.88;5036519;28;20045;-63
2023/07/08 10:54:38;;;;;;;8.32;5.47;;;;;;;32.88;29.88;100877.69;5028418;28;20719;-63
2023/07/08 10:57:10;;;;;;;12.82;5.32;;;;;;;32.94;29.15;100873.53;5035931;28;20045;-64
2023/07/08 10:59:48;;;;;;;9.70;5.00;;;;;;;32.90;29.07;100869.47;5030110;28;20036;-63
2023/07/08 11:02:26;;;;;;;11.68;5.55;;;;;;;33.08;30.40;100892.59;5029811;28;20017;-64
2023/07/08 11:05:11;;;;;;;7.10;4.78;;;;;;;33.27;29.20;100870.13;5030928;28;20064;-63
2023/07/08 11:07:46;;;;;;;7.30;4.68;;;;;;;33.36;29.03;100873.75;5038469;28;20418;-63
2023/07/08 11:10:18;;;;;;;8.48;5.20;;;;;;;33.31;29.30;100863.47;5035331;28;20064;-63
2023/07/08 11:13:02;;;;;;;7.97;5.22;;;;;;;33.45;28.29;100862.94;5040548;28;20048;-63
2023/07/08 11:15:53;;;;;;;6.65;5.30;;;;;;;33.53;28.85;100868.34;5036154;28;20044;-63
2023/07/08 11:18:41;;;;;;;9.75;5.30;;;;;;;33.74;29.96;100889.41;5035636;28;20092;-64
2023/07/08 11:21:27;;;;;;;7.50;5.18;;;;;;;33.90;27.85;100860.03;5033517;28;20124;-63
2023/07/08 11:24:01;;;;;;;7.20;5.03;;;;;;;34.07;28.14;100869.84;5036311;28;20041;-63
2023/07/08 11:26:37;;;;;;;8.13;5.15;;;;;;;34.13;28.32;100869.19;5035519;28;20044;-64
2023/07/08 11:29:09;;;;;;;7.97;5.07;;;;;;;34.21;27.13;100863.00;5033718;28;20506;-64
2023/07/08 11:31:35;;;;;;;8.93;4.80;;;;;;;34.36;26.99;100857.84;5032342;28;20136;-63